createdAt,value
2022-09-20T00:00:08.879Z,0.00
2022-09-20T00:01:08.964Z,0.00
2022-09-20T00:02:09.112Z,0.00
2022-09-20T00:03:09.089Z,0.00
2022-09-20T00:04:09.241Z,0.00
2022-09-20T00:05:09.123Z,0.00
2022-09-20T00:06:11.870Z,0.00
2022-09-20T00:07:45.220Z,0.00
2022-09-20T00:08:15.945Z,0.00
2022-09-20T00:09:09.055Z,0.00
2022-09-20T00:10:09.000Z,0.00
2022-09-20T00:11:09.001Z,0.00
2022-09-20T00:12:08.776Z,0.00
2022-09-20T00:13:11.789Z,0.00
2022-09-20T00:14:09.030Z,0.00
2022-09-20T00:15:08.967Z,0.00
2022-09-20T00:16:08.959Z,0.00
2022-09-20T00:17:08.726Z,0.00
2022-09-20T00:18:08.925Z,0.00
2022-09-20T00:19:24.074Z,0.00
2022-09-20T00:20:08.669Z,0.00
2022-09-20T00:21:08.648Z,0.00
2022-09-20T00:22:08.662Z,0.00
2022-09-20T00:23:09.919Z,0.00
2022-09-20T00:24:11.896Z,0.00
2022-09-20T00:25:08.632Z,0.00
2022-09-20T00:26:08.614Z,0.00
2022-09-20T00:27:15.893Z,0.00
2022-09-20T00:28:08.859Z,0.00
2022-09-20T00:29:08.576Z,0.00
2022-09-20T00:30:08.622Z,0.00
2022-09-20T00:31:09.580Z,0.00
2022-09-20T00:32:08.598Z,0.00
2022-09-20T00:33:09.546Z,0.00
2022-09-20T00:34:08.621Z,0.00
2022-09-20T00:35:09.537Z,0.00
2022-09-20T00:36:08.506Z,0.00
2022-09-20T00:37:08.491Z,0.00
2022-09-20T00:38:08.484Z,0.00
2022-09-20T00:39:09.518Z,0.00
2022-09-20T00:40:08.755Z,0.00
2022-09-20T00:41:30.700Z,0.00
2022-09-20T00:42:15.719Z,0.00
2022-09-20T00:43:09.439Z,0.00
2022-09-20T00:44:15.522Z,0.00
2022-09-20T00:45:08.671Z,0.00
2022-09-20T00:46:08.719Z,0.00
2022-09-20T00:47:08.641Z,0.00
2022-09-20T00:48:24.079Z,0.00
2022-09-20T00:49:08.411Z,0.00
2022-09-20T00:50:08.363Z,0.00
2022-09-20T00:51:11.397Z,0.00
2022-09-20T00:52:09.374Z,0.00
2022-09-20T00:53:08.599Z,0.00
2022-09-20T00:54:09.583Z,0.00
2022-09-20T00:55:09.295Z,0.00
2022-09-20T00:56:08.549Z,0.00
2022-09-20T00:57:11.355Z,0.00
2022-09-20T00:58:08.527Z,0.00
2022-09-20T00:59:08.264Z,0.00
2022-09-20T01:00:08.244Z,0.00
2022-09-20T01:01:09.338Z,0.00
2022-09-20T01:02:08.527Z,0.00
2022-09-20T01:03:08.478Z,0.00
2022-09-20T01:04:08.251Z,0.00
2022-09-20T01:05:08.204Z,0.00
2022-09-20T01:06:08.430Z,0.00
2022-09-20T01:07:08.402Z,0.00
2022-09-20T01:08:15.250Z,0.00
2022-09-20T01:09:08.178Z,0.00
2022-09-20T01:10:09.397Z,0.00
2022-09-20T01:11:08.145Z,0.00
2022-09-20T01:12:09.399Z,0.00
2022-09-20T01:13:09.357Z,0.00
2022-09-20T01:14:08.137Z,0.00
2022-09-20T01:15:08.091Z,0.00
2022-09-20T01:16:08.109Z,0.00
2022-09-20T01:17:08.080Z,0.00
2022-09-20T01:18:09.316Z,0.00
2022-09-20T01:19:09.049Z,0.00
2022-09-20T01:20:08.056Z,0.00
2022-09-20T01:21:08.070Z,0.00
2022-09-20T01:22:11.258Z,0.00
2022-09-20T01:23:11.285Z,0.00
2022-09-20T01:24:08.004Z,0.00
2022-09-20T01:25:15.154Z,0.00
2022-09-20T01:26:08.229Z,0.00
2022-09-20T01:27:09.015Z,0.00
2022-09-20T01:28:07.963Z,0.00
2022-09-20T01:29:07.956Z,0.00
2022-09-20T01:30:07.926Z,0.00
2022-09-20T01:31:07.950Z,0.00
2022-09-20T01:32:07.932Z,0.00
2022-09-20T01:33:08.908Z,0.00
2022-09-20T01:34:07.888Z,0.00
2022-09-20T01:35:08.151Z,0.00
2022-09-20T01:36:23.495Z,0.00
2022-09-20T01:37:07.883Z,0.00
2022-09-20T01:38:07.848Z,0.00
2022-09-20T01:39:10.903Z,0.00
2022-09-20T01:40:09.087Z,0.00
2022-09-20T01:41:08.072Z,0.00
2022-09-20T01:42:07.822Z,0.00
2022-09-20T01:43:08.810Z,0.00
2022-09-20T01:44:07.783Z,0.00
2022-09-20T01:45:08.822Z,0.00
2022-09-20T01:46:08.106Z,0.00
2022-09-20T01:47:08.014Z,0.00
2022-09-20T01:48:08.788Z,0.00
2022-09-20T01:49:09.028Z,0.00
2022-09-20T01:50:07.729Z,0.00
2022-09-20T01:51:08.733Z,0.00
2022-09-20T01:52:07.765Z,0.00
2022-09-20T01:53:07.939Z,0.00
2022-09-20T01:54:07.702Z,0.00
2022-09-20T01:55:08.685Z,0.00
2022-09-20T01:56:10.682Z,0.00
2022-09-20T01:57:07.942Z,0.00
2022-09-20T01:58:10.679Z,0.00
2022-09-20T01:59:23.837Z,0.00
2022-09-20T02:00:09.655Z,0.00
2022-09-20T02:01:10.679Z,0.00
2022-09-20T02:02:07.875Z,0.00
2022-09-20T02:03:08.808Z,0.00
2022-09-20T02:04:07.792Z,0.00
2022-09-20T02:05:08.571Z,0.00
2022-09-20T02:06:07.558Z,0.00
2022-09-20T02:07:07.829Z,0.00
2022-09-20T02:08:07.560Z,0.00
2022-09-20T02:09:08.526Z,0.00
2022-09-20T02:10:14.605Z,0.00
2022-09-20T02:11:07.732Z,0.00
2022-09-20T02:12:22.852Z,0.00
2022-09-20T02:13:07.706Z,0.00
2022-09-20T02:14:07.800Z,0.00
2022-09-20T02:15:07.693Z,0.00
2022-09-20T02:16:08.732Z,0.00
2022-09-20T02:17:10.705Z,0.00
2022-09-20T02:18:23.026Z,0.00
2022-09-20T02:19:07.451Z,0.00
2022-09-20T02:20:07.410Z,0.00
2022-09-20T02:21:07.413Z,0.00
2022-09-20T02:22:14.494Z,0.00
2022-09-20T02:23:10.438Z,0.00
2022-09-20T02:24:07.639Z,0.00
2022-09-20T02:25:07.467Z,0.00
2022-09-20T02:26:08.374Z,0.00
2022-09-20T02:27:07.582Z,0.00
2022-09-20T02:28:07.328Z,0.00
2022-09-20T02:29:07.534Z,0.00
2022-09-20T02:30:07.342Z,0.00
2022-09-20T02:31:10.596Z,0.00
2022-09-20T02:32:07.639Z,0.00
2022-09-20T02:33:07.271Z,0.00
2022-09-20T02:34:07.258Z,0.00
2022-09-20T02:35:07.268Z,0.00
2022-09-20T02:36:14.626Z,0.00
2022-09-20T02:37:22.517Z,0.00
2022-09-20T02:38:07.249Z,0.00
2022-09-20T02:39:07.199Z,0.00
2022-09-20T02:40:10.279Z,0.00
2022-09-20T02:41:07.454Z,0.00
2022-09-20T02:42:07.396Z,0.00
2022-09-20T02:43:07.155Z,0.00
2022-09-20T02:44:07.230Z,0.00
2022-09-20T02:45:07.387Z,0.00
2022-09-20T02:46:07.421Z,0.00
2022-09-20T02:47:07.134Z,0.00
2022-09-20T02:48:07.112Z,0.00
2022-09-20T02:49:07.322Z,0.00
2022-09-20T02:50:07.100Z,0.00
2022-09-20T02:51:22.444Z,0.00
2022-09-20T02:52:07.075Z,0.00
2022-09-20T02:53:07.083Z,0.00
2022-09-20T02:54:08.316Z,0.00
2022-09-20T02:55:10.317Z,0.00
2022-09-20T02:56:14.468Z,0.00
2022-09-20T02:57:07.248Z,0.00
2022-09-20T02:58:07.251Z,0.00
2022-09-20T02:59:07.121Z,0.00
2022-09-20T03:00:10.019Z,0.00
2022-09-20T03:01:10.090Z,0.00
2022-09-20T03:02:07.049Z,0.00
2022-09-20T03:03:07.174Z,0.00
2022-09-20T03:04:09.986Z,0.00
2022-09-20T03:05:07.196Z,0.00
2022-09-20T03:06:09.975Z,0.00
2022-09-20T03:07:06.931Z,0.00
2022-09-20T03:08:29.162Z,0.00
2022-09-20T03:09:06.882Z,0.00
2022-09-20T03:10:10.184Z,0.00
2022-09-20T03:11:06.870Z,0.00
2022-09-20T03:12:07.129Z,0.00
2022-09-20T03:13:07.860Z,0.00
2022-09-20T03:14:06.899Z,0.00
2022-09-20T03:15:13.948Z,0.00
2022-09-20T03:16:07.039Z,0.00
2022-09-20T03:17:22.179Z,0.00
2022-09-20T03:18:06.827Z,0.00
2022-09-20T03:19:09.808Z,0.00
2022-09-20T03:20:07.006Z,0.00
2022-09-20T03:21:07.784Z,0.00
2022-09-20T03:22:08.036Z,0.00
2022-09-20T03:23:06.783Z,0.00
2022-09-20T03:24:06.738Z,0.00
2022-09-20T03:25:06.730Z,0.00
2022-09-20T03:26:07.957Z,0.00
2022-09-20T03:27:06.944Z,0.00
2022-09-20T03:28:27.683Z,0.00
2022-09-20T03:29:07.009Z,0.00
2022-09-20T03:30:06.697Z,0.00
2022-09-20T03:31:06.689Z,0.00
2022-09-20T03:32:06.703Z,0.00
2022-09-20T03:33:06.865Z,0.00
2022-09-20T03:34:06.897Z,0.00
2022-09-20T03:35:09.652Z,0.00
2022-09-20T03:36:06.837Z,0.00
2022-09-20T03:37:06.593Z,0.00
2022-09-20T03:38:06.608Z,0.00
2022-09-20T03:39:06.873Z,0.00
2022-09-20T03:40:06.868Z,0.00
2022-09-20T03:41:06.548Z,0.00
2022-09-20T03:42:06.556Z,0.00
2022-09-20T03:43:13.776Z,0.00
2022-09-20T03:44:06.625Z,0.00
2022-09-20T03:45:07.508Z,0.00
2022-09-20T03:46:09.583Z,0.00
2022-09-20T03:47:06.736Z,0.00
2022-09-20T03:48:09.769Z,0.00
2022-09-20T03:49:06.486Z,0.00
2022-09-20T03:50:06.458Z,0.00
2022-09-20T03:51:06.438Z,0.00
2022-09-20T03:52:06.684Z,0.00
2022-09-20T03:53:09.486Z,0.00
2022-09-20T03:54:06.447Z,0.00
2022-09-20T03:55:07.439Z,0.00
2022-09-20T03:56:06.407Z,0.00
2022-09-20T03:57:06.391Z,0.00
2022-09-20T03:58:08.983Z,0.00
2022-09-20T03:59:06.525Z,0.00
2022-09-20T04:00:06.374Z,0.00
2022-09-20T04:01:09.658Z,0.00
2022-09-20T04:02:06.514Z,0.00
2022-09-20T04:03:09.359Z,0.00
2022-09-20T04:04:06.350Z,0.00
2022-09-20T04:05:06.561Z,0.00
2022-09-20T04:06:06.524Z,0.00
2022-09-20T04:07:07.292Z,0.00
2022-09-20T04:08:13.653Z,0.00
2022-09-20T04:09:13.561Z,0.00
2022-09-20T04:10:06.302Z,0.00
2022-09-20T04:11:06.240Z,0.00
2022-09-20T04:12:06.253Z,0.00
2022-09-20T04:13:06.439Z,0.00
2022-09-20T04:14:11.197Z,0.00
2022-09-20T04:15:07.211Z,0.00
2022-09-20T04:16:13.469Z,0.00
2022-09-20T04:17:06.462Z,0.00
2022-09-20T04:18:06.414Z,0.00
2022-09-20T04:19:06.156Z,0.00
2022-09-20T04:20:06.393Z,0.00
2022-09-20T04:21:06.132Z,0.00
2022-09-20T04:22:09.386Z,0.00
2022-09-20T04:23:06.585Z,0.00
2022-09-20T04:24:06.098Z,0.00
2022-09-20T04:25:07.125Z,0.00
2022-09-20T04:26:06.300Z,0.00
2022-09-20T04:27:06.344Z,0.00
2022-09-20T04:28:06.054Z,0.00
2022-09-20T04:29:06.395Z,0.00
2022-09-20T04:30:13.560Z,0.00
2022-09-20T04:31:09.072Z,0.00
2022-09-20T04:32:09.315Z,0.00
2022-09-20T04:33:06.464Z,0.00
2022-09-20T04:34:06.042Z,0.00
2022-09-20T04:35:05.989Z,0.00
2022-09-20T04:36:07.206Z,0.00
2022-09-20T04:37:06.242Z,0.00
2022-09-20T04:38:08.995Z,0.00
2022-09-20T04:39:05.974Z,0.00
2022-09-20T04:40:09.000Z,0.00
2022-09-20T04:41:06.145Z,0.00
2022-09-20T04:42:05.947Z,0.00
2022-09-20T04:43:06.904Z,0.00
2022-09-20T04:44:13.004Z,0.00
2022-09-20T04:45:06.127Z,0.00
2022-09-20T04:46:09.187Z,0.00
2022-09-20T04:47:09.124Z,0.00
2022-09-20T04:48:06.120Z,0.00
2022-09-20T04:49:06.063Z,0.00
2022-09-20T04:50:06.071Z,0.00
2022-09-20T04:51:05.824Z,0.00
2022-09-20T04:52:05.831Z,0.00
2022-09-20T04:53:05.795Z,0.00
2022-09-20T04:54:06.058Z,0.00
2022-09-20T04:55:05.785Z,0.00
2022-09-20T04:56:05.784Z,0.00
2022-09-20T04:57:08.795Z,0.00
2022-09-20T04:58:05.989Z,0.00
2022-09-20T04:59:13.061Z,0.00
2022-09-20T05:00:05.992Z,0.00
2022-09-20T05:01:07.052Z,0.00
2022-09-20T05:02:05.753Z,0.00
2022-09-20T05:03:05.710Z,0.00
2022-09-20T05:04:05.732Z,0.00
2022-09-20T05:05:20.998Z,0.00
2022-09-20T05:06:05.701Z,0.00
2022-09-20T05:07:06.891Z,0.00
2022-09-20T05:08:05.879Z,0.00
2022-09-20T05:09:06.883Z,0.00
2022-09-20T05:10:05.632Z,0.00
2022-09-20T05:11:05.868Z,0.00
2022-09-20T05:12:21.327Z,0.00
2022-09-20T05:13:05.809Z,0.00
2022-09-20T05:14:05.802Z,0.00
2022-09-20T05:15:05.835Z,0.00
2022-09-20T05:16:08.651Z,5.62
2022-09-20T05:17:05.601Z,5.62
2022-09-20T05:18:06.798Z,5.62
2022-09-20T05:19:05.519Z,5.62
2022-09-20T05:20:08.784Z,5.62
2022-09-20T05:21:05.732Z,5.62
2022-09-20T05:22:05.744Z,5.62
2022-09-20T05:23:06.720Z,5.62
2022-09-20T05:24:06.757Z,5.62
2022-09-20T05:25:05.700Z,5.62
2022-09-20T05:26:21.025Z,5.62
2022-09-20T05:27:05.434Z,5.62
2022-09-20T05:28:05.443Z,5.62
2022-09-20T05:29:05.752Z,5.62
2022-09-20T05:30:05.462Z,5.62
2022-09-20T05:31:05.415Z,11.25
2022-09-20T05:32:06.522Z,11.25
2022-09-20T05:33:12.669Z,11.25
2022-09-20T05:34:05.388Z,11.25
2022-09-20T05:35:06.418Z,11.25
2022-09-20T05:36:05.379Z,11.25
2022-09-20T05:37:06.584Z,11.25
2022-09-20T05:38:06.604Z,11.25
2022-09-20T05:39:05.395Z,11.25
2022-09-20T05:40:08.610Z,11.25
2022-09-20T05:41:06.318Z,11.25
2022-09-20T05:42:05.316Z,16.88
2022-09-20T05:43:05.267Z,16.88
2022-09-20T05:44:05.433Z,16.88
2022-09-20T05:45:05.257Z,16.88
2022-09-20T05:46:05.564Z,16.88
2022-09-20T05:47:05.502Z,16.88
2022-09-20T05:48:08.496Z,22.50
2022-09-20T05:49:05.203Z,28.12
2022-09-20T05:50:05.458Z,28.12
2022-09-20T05:51:05.417Z,33.75
2022-09-20T05:52:05.178Z,33.75
2022-09-20T05:53:06.207Z,39.38
2022-09-20T05:54:06.179Z,39.38
2022-09-20T05:55:05.393Z,45.00
2022-09-20T05:56:05.375Z,45.00
2022-09-20T05:57:06.144Z,50.62
2022-09-20T05:58:05.365Z,50.62
2022-09-20T05:59:12.437Z,50.62
2022-09-20T06:00:12.148Z,50.62
2022-09-20T06:01:05.434Z,50.62
2022-09-20T06:02:12.257Z,50.62
2022-09-20T06:03:08.127Z,56.25
2022-09-20T06:04:05.277Z,56.25
2022-09-20T06:05:06.266Z,56.25
2022-09-20T06:06:05.256Z,61.88
2022-09-20T06:07:05.038Z,61.88
2022-09-20T06:08:05.271Z,61.88
2022-09-20T06:09:06.008Z,61.88
2022-09-20T06:10:05.234Z,56.25
2022-09-20T06:11:04.981Z,56.25
2022-09-20T06:12:04.970Z,50.62
2022-09-20T06:13:05.215Z,50.62
2022-09-20T06:14:05.344Z,50.62
2022-09-20T06:15:04.947Z,45.00
2022-09-20T06:16:08.086Z,45.00
2022-09-20T06:17:04.903Z,45.00
2022-09-20T06:18:04.927Z,39.38
2022-09-20T06:19:05.916Z,39.38
2022-09-20T06:20:04.881Z,39.38
2022-09-20T06:21:04.891Z,39.38
2022-09-20T06:22:06.073Z,39.38
2022-09-20T06:23:04.852Z,33.75
2022-09-20T06:24:04.874Z,33.75
2022-09-20T06:25:12.250Z,33.75
2022-09-20T06:26:07.895Z,33.75
2022-09-20T06:27:06.085Z,33.75
2022-09-20T06:28:05.822Z,33.75
2022-09-20T06:29:04.811Z,33.75
2022-09-20T06:30:04.850Z,33.75
2022-09-20T06:31:12.296Z,33.75
2022-09-20T06:32:04.774Z,39.38
2022-09-20T06:33:08.012Z,39.38
2022-09-20T06:34:05.042Z,39.38
2022-09-20T06:35:05.766Z,39.38
2022-09-20T06:36:04.972Z,39.38
2022-09-20T06:37:25.924Z,45.00
2022-09-20T06:38:04.692Z,45.00
2022-09-20T06:39:04.699Z,50.62
2022-09-20T06:40:04.751Z,50.62
2022-09-20T06:41:04.854Z,50.62
2022-09-20T06:42:04.651Z,56.25
2022-09-20T06:43:04.873Z,73.12
2022-09-20T06:44:06.003Z,73.12
2022-09-20T06:45:04.647Z,73.12
2022-09-20T06:46:04.897Z,67.50
2022-09-20T06:47:05.637Z,73.12
2022-09-20T06:48:04.606Z,73.12
2022-09-20T06:49:04.566Z,67.50
2022-09-20T06:50:04.588Z,61.88
2022-09-20T06:51:05.575Z,56.25
2022-09-20T06:52:04.773Z,61.88
2022-09-20T06:53:11.624Z,61.88
2022-09-20T06:54:04.758Z,67.50
2022-09-20T06:55:04.549Z,67.50
2022-09-20T06:56:05.536Z,61.88
2022-09-20T06:57:04.728Z,67.50
2022-09-20T06:58:04.713Z,84.38
2022-09-20T06:59:04.469Z,95.62
2022-09-20T07:00:04.495Z,101.25
2022-09-20T07:01:04.705Z,101.25
2022-09-20T07:02:04.681Z,95.62
2022-09-20T07:03:04.460Z,101.25
2022-09-20T07:04:05.691Z,112.50
2022-09-20T07:05:04.705Z,118.12
2022-09-20T07:06:05.405Z,118.12
2022-09-20T07:07:09.284Z,106.88
2022-09-20T07:08:04.387Z,95.62
2022-09-20T07:09:11.609Z,84.38
2022-09-20T07:10:04.420Z,78.75
2022-09-20T07:11:11.408Z,78.75
2022-09-20T07:12:04.343Z,73.12
2022-09-20T07:13:04.299Z,67.50
2022-09-20T07:14:04.403Z,73.12
2022-09-20T07:15:04.342Z,84.38
2022-09-20T07:16:05.687Z,90.00
2022-09-20T07:17:04.540Z,90.00
2022-09-20T07:18:04.258Z,95.62
2022-09-20T07:19:05.582Z,112.50
2022-09-20T07:20:04.239Z,146.25
2022-09-20T07:21:04.257Z,157.50
2022-09-20T07:22:04.262Z,151.88
2022-09-20T07:23:05.463Z,135.00
2022-09-20T07:24:11.460Z,118.12
2022-09-20T07:25:05.230Z,90.00
2022-09-20T07:26:04.209Z,78.75
2022-09-20T07:27:04.191Z,67.50
2022-09-20T07:28:04.193Z,56.25
2022-09-20T07:29:04.168Z,50.62
2022-09-20T07:30:04.174Z,45.00
2022-09-20T07:31:04.173Z,45.00
2022-09-20T07:32:04.154Z,39.38
2022-09-20T07:33:04.114Z,45.00
2022-09-20T07:34:04.280Z,50.62
2022-09-20T07:35:04.118Z,56.25
2022-09-20T07:36:04.100Z,56.25
2022-09-20T07:37:04.093Z,56.25
2022-09-20T07:38:04.070Z,56.25
2022-09-20T07:39:04.053Z,56.25
2022-09-20T07:40:04.083Z,50.62
2022-09-20T07:41:04.039Z,56.25
2022-09-20T07:42:04.051Z,61.88
2022-09-20T07:43:04.023Z,61.88
2022-09-20T07:44:04.006Z,67.50
2022-09-20T07:45:04.013Z,67.50
2022-09-20T07:46:04.000Z,67.50
2022-09-20T07:47:04.003Z,67.50
2022-09-20T07:48:03.952Z,67.50
2022-09-20T07:49:03.943Z,67.50
2022-09-20T07:50:03.955Z,67.50
2022-09-20T07:51:06.837Z,73.12
2022-09-20T07:52:03.934Z,73.12
2022-09-20T07:53:03.959Z,73.12
2022-09-20T07:54:03.920Z,73.12
2022-09-20T07:55:03.888Z,84.38
2022-09-20T07:56:03.864Z,90.00
2022-09-20T07:57:03.882Z,90.00
2022-09-20T07:58:03.894Z,90.00
2022-09-20T07:59:03.834Z,95.62
2022-09-20T08:00:03.857Z,101.25
2022-09-20T08:01:03.863Z,95.62
2022-09-20T08:02:03.856Z,90.00
2022-09-20T08:03:03.817Z,90.00
2022-09-20T08:04:03.775Z,90.00
2022-09-20T08:05:03.796Z,84.38
2022-09-20T08:06:03.830Z,90.00
2022-09-20T08:07:03.744Z,90.00
2022-09-20T08:08:03.757Z,84.38
2022-09-20T08:09:05.957Z,78.75
2022-09-20T08:10:03.729Z,73.12
2022-09-20T08:11:03.707Z,73.12
2022-09-20T08:14:08.540Z,73.12
2022-09-20T08:15:03.670Z,73.12
2022-09-20T08:16:03.665Z,67.50
2022-09-20T08:17:03.640Z,67.50
2022-09-20T08:18:03.648Z,73.12
2022-09-20T08:19:03.681Z,78.75
2022-09-20T08:20:03.621Z,78.75
2022-09-20T08:21:03.609Z,78.75
2022-09-20T08:22:03.590Z,84.38
2022-09-20T08:23:22.363Z,90.00
2022-09-20T08:24:04.589Z,90.00
2022-09-20T08:25:03.612Z,90.00
2022-09-20T08:26:03.549Z,90.00
2022-09-20T08:27:03.551Z,90.00
2022-09-20T08:28:03.527Z,90.00
2022-09-20T08:29:03.573Z,84.38
2022-09-20T08:30:03.524Z,84.38
2022-09-20T08:31:03.494Z,84.38
2022-09-20T08:32:03.551Z,84.38
2022-09-20T08:33:03.500Z,84.38
2022-09-20T08:34:03.504Z,84.38
2022-09-20T08:35:03.468Z,90.00
2022-09-20T08:36:03.455Z,95.62
2022-09-20T08:37:03.469Z,95.62
2022-09-20T08:40:04.450Z,101.25
2022-09-20T08:41:03.391Z,101.25
2022-09-20T08:42:03.433Z,101.25
2022-09-20T08:43:05.461Z,95.62
2022-09-20T08:44:03.391Z,95.62
2022-09-20T08:45:03.358Z,101.25
2022-09-20T08:46:05.538Z,112.50
2022-09-20T08:47:03.380Z,118.12
2022-09-20T08:48:03.312Z,123.75
2022-09-20T08:49:03.334Z,129.38
2022-09-20T08:50:09.213Z,129.38
2022-09-20T08:51:05.729Z,123.75
2022-09-20T08:52:03.361Z,123.75
2022-09-20T08:53:03.258Z,118.12
2022-09-20T08:54:03.274Z,118.12
2022-09-20T08:55:07.699Z,129.38
2022-09-20T08:56:03.255Z,140.62
2022-09-20T08:57:03.221Z,151.88
2022-09-20T08:58:08.159Z,157.50
2022-09-20T08:59:04.209Z,163.12
2022-09-20T09:00:03.221Z,168.75
2022-09-20T09:01:03.323Z,168.75
2022-09-20T09:02:03.213Z,157.50
2022-09-20T09:03:03.201Z,146.25
2022-09-20T09:04:03.168Z,140.62
2022-09-20T09:05:03.184Z,140.62
2022-09-20T09:06:04.814Z,140.62
2022-09-20T09:07:03.392Z,135.00
2022-09-20T09:08:04.511Z,140.62
2022-09-20T09:09:03.108Z,135.00
2022-09-20T09:10:03.165Z,129.38
2022-09-20T09:11:03.092Z,123.75
2022-09-20T09:12:03.102Z,135.00
2022-09-20T09:13:03.071Z,140.62
2022-09-20T09:14:03.054Z,140.62
2022-09-20T09:15:03.063Z,140.62
2022-09-20T09:16:03.026Z,135.00
2022-09-20T09:17:03.095Z,129.38
2022-09-20T09:18:03.001Z,135.00
2022-09-20T09:19:03.004Z,146.25
2022-09-20T09:20:02.999Z,151.88
2022-09-20T09:21:03.031Z,151.88
2022-09-20T09:22:02.974Z,151.88
2022-09-20T09:23:02.971Z,146.25
2022-09-20T09:24:02.953Z,140.62
2022-09-20T09:25:02.934Z,140.62
2022-09-20T09:26:02.950Z,157.50
2022-09-20T09:27:02.914Z,174.38
2022-09-20T09:28:02.905Z,174.38
2022-09-20T09:29:02.915Z,163.12
2022-09-20T09:30:02.872Z,163.12
2022-09-20T09:31:02.948Z,157.50
2022-09-20T09:32:02.907Z,146.25
2022-09-20T09:33:02.843Z,151.88
2022-09-20T09:34:02.890Z,157.50
2022-09-20T09:35:02.822Z,168.75
2022-09-20T09:36:02.953Z,180.00
2022-09-20T09:37:02.824Z,185.62
2022-09-20T09:38:02.814Z,180.00
2022-09-20T09:39:02.791Z,168.75
2022-09-20T09:40:02.829Z,157.50
2022-09-20T09:41:02.781Z,163.12
2022-09-20T09:42:02.754Z,163.12
2022-09-20T09:43:02.762Z,163.12
2022-09-20T09:44:02.742Z,163.12
2022-09-20T09:45:02.729Z,163.12
2022-09-20T09:46:03.057Z,168.75
2022-09-20T09:47:02.931Z,180.00
2022-09-20T09:48:02.679Z,185.62
2022-09-20T09:49:02.686Z,191.25
2022-09-20T09:50:06.279Z,196.88
2022-09-20T09:51:03.726Z,202.50
2022-09-20T09:52:02.675Z,219.38
2022-09-20T09:53:02.623Z,241.88
2022-09-20T09:54:02.682Z,264.38
2022-09-20T09:55:05.328Z,281.25
2022-09-20T09:56:02.619Z,286.88
2022-09-20T09:57:02.627Z,281.25
2022-09-20T09:58:02.592Z,303.75
2022-09-20T09:59:02.583Z,337.50
2022-09-20T10:00:10.265Z,320.62
2022-09-20T10:01:03.618Z,286.88
2022-09-20T10:02:02.637Z,275.62
2022-09-20T10:03:02.544Z,275.62
2022-09-20T10:04:02.530Z,286.88
2022-09-20T10:05:02.518Z,292.50
2022-09-20T10:06:02.500Z,309.38
2022-09-20T10:07:02.734Z,292.50
2022-09-20T10:08:02.499Z,275.62
2022-09-20T10:09:02.716Z,281.25
2022-09-20T10:10:02.465Z,292.50
2022-09-20T10:11:02.446Z,292.50
2022-09-20T10:12:02.457Z,298.12
2022-09-20T10:13:02.430Z,298.12
2022-09-20T10:14:02.426Z,286.88
2022-09-20T10:15:02.408Z,270.00
2022-09-20T10:16:02.457Z,258.75
2022-09-20T10:17:02.420Z,247.50
2022-09-20T10:18:02.374Z,253.12
2022-09-20T10:19:02.365Z,247.50
2022-09-20T10:20:02.369Z,247.50
2022-09-20T10:21:02.357Z,241.88
2022-09-20T10:22:02.363Z,241.88
2022-09-20T10:23:30.409Z,247.50
2022-09-20T10:24:04.545Z,253.12
2022-09-20T10:25:02.308Z,275.62
2022-09-20T10:26:05.386Z,303.75
2022-09-20T10:27:02.299Z,303.75
2022-09-20T10:28:02.288Z,303.75
2022-09-20T10:29:02.292Z,281.25
2022-09-20T10:30:02.286Z,253.12
2022-09-20T10:31:02.260Z,241.88
2022-09-20T10:32:02.281Z,241.88
2022-09-20T10:33:02.255Z,264.38
2022-09-20T10:34:02.210Z,253.12
2022-09-20T10:35:02.196Z,258.75
2022-09-20T10:36:02.179Z,253.12
2022-09-20T10:37:02.158Z,230.62
2022-09-20T10:38:02.181Z,225.00
2022-09-20T10:39:02.163Z,230.62
2022-09-20T10:40:02.161Z,236.25
2022-09-20T10:41:02.152Z,225.00
2022-09-20T10:42:05.160Z,213.75
2022-09-20T10:43:02.368Z,208.12
2022-09-20T10:44:05.277Z,219.38
2022-09-20T10:45:02.084Z,225.00
2022-09-20T10:46:30.793Z,230.62
2022-09-20T10:47:03.123Z,230.62
2022-09-20T10:48:02.282Z,202.50
2022-09-20T10:49:02.145Z,196.88
2022-09-20T10:50:02.034Z,196.88
2022-09-20T10:51:02.025Z,191.25
2022-09-20T10:52:02.014Z,168.75
2022-09-20T10:53:02.031Z,151.88
2022-09-20T10:54:02.029Z,157.50
2022-09-20T10:55:01.987Z,180.00
2022-09-20T10:56:02.219Z,180.00
2022-09-20T10:57:01.978Z,185.62
2022-09-20T10:58:02.004Z,202.50
2022-09-20T10:59:01.972Z,225.00
2022-09-20T11:00:01.942Z,236.25
2022-09-20T11:01:02.010Z,241.88
2022-09-20T11:02:01.981Z,253.12
2022-09-20T11:03:01.896Z,247.50
2022-09-20T11:04:01.901Z,241.88
2022-09-20T11:05:02.110Z,236.25
2022-09-20T11:06:02.134Z,219.38
2022-09-20T11:07:01.852Z,213.75
2022-09-20T11:08:02.076Z,230.62
2022-09-20T11:09:01.858Z,258.75
2022-09-20T11:10:01.852Z,253.12
2022-09-20T11:11:01.821Z,253.12
2022-09-20T11:12:02.809Z,264.38
2022-09-20T11:13:01.781Z,264.38
2022-09-20T11:14:01.778Z,253.12
2022-09-20T11:15:01.782Z,264.38
2022-09-20T11:16:01.765Z,253.12
2022-09-20T11:17:01.802Z,247.50
2022-09-20T11:18:01.761Z,253.12
2022-09-20T11:19:01.737Z,241.88
2022-09-20T11:20:06.912Z,230.62
2022-09-20T11:21:02.716Z,230.62
2022-09-20T11:22:01.691Z,219.38
2022-09-20T11:23:01.696Z,219.38
2022-09-20T11:24:01.702Z,196.88
2022-09-20T11:25:01.671Z,191.25
2022-09-20T11:26:01.677Z,185.62
2022-09-20T11:27:01.648Z,180.00
2022-09-20T11:28:02.667Z,185.62
2022-09-20T11:29:01.616Z,191.25
2022-09-20T11:30:01.839Z,168.75
2022-09-20T11:31:01.633Z,163.12
2022-09-20T11:32:02.608Z,151.88
2022-09-20T11:33:01.645Z,135.00
2022-09-20T11:34:01.572Z,135.00
2022-09-20T11:35:01.571Z,112.50
2022-09-20T11:36:01.580Z,112.50
2022-09-20T11:37:01.561Z,112.50
2022-09-20T11:38:01.529Z,118.12
2022-09-20T11:39:02.519Z,140.62
2022-09-20T11:40:01.627Z,140.62
2022-09-20T11:41:01.513Z,135.00
2022-09-20T11:42:01.496Z,129.38
2022-09-20T11:43:01.491Z,118.12
2022-09-20T11:44:01.474Z,95.62
2022-09-20T11:45:01.446Z,84.38
2022-09-20T11:46:01.565Z,95.62
2022-09-20T11:47:01.464Z,95.62
2022-09-20T11:48:01.444Z,73.12
2022-09-20T11:49:01.450Z,84.38
2022-09-20T11:50:01.397Z,146.25
2022-09-20T11:51:01.404Z,174.38
2022-09-20T11:52:01.401Z,174.38
2022-09-20T11:53:01.373Z,151.88
2022-09-20T11:54:01.367Z,135.00
2022-09-20T11:55:01.345Z,129.38
2022-09-20T11:56:01.350Z,118.12
2022-09-20T11:57:01.406Z,106.88
2022-09-20T11:58:01.322Z,95.62
2022-09-20T11:59:01.304Z,84.38
2022-09-20T12:00:01.325Z,84.38
2022-09-20T12:01:01.592Z,84.38
2022-09-20T12:02:03.312Z,67.50
2022-09-20T12:03:01.727Z,45.00
2022-09-20T12:04:27.918Z,73.12
2022-09-20T12:05:02.247Z,73.12
2022-09-20T12:06:01.240Z,73.12
2022-09-20T12:07:04.677Z,73.12
2022-09-20T12:08:02.232Z,73.12
2022-09-20T12:09:01.216Z,73.12
2022-09-20T12:10:01.186Z,67.50
2022-09-20T12:11:01.165Z,78.75
2022-09-20T12:12:01.154Z,90.00
2022-09-20T12:13:01.208Z,95.62
2022-09-20T12:14:01.158Z,112.50
2022-09-20T12:15:01.145Z,106.88
2022-09-20T12:16:01.172Z,106.88
2022-09-20T12:17:01.125Z,118.12
2022-09-20T12:18:04.332Z,129.38
2022-09-20T12:19:02.109Z,151.88
2022-09-20T12:20:01.096Z,163.12
2022-09-20T12:21:01.114Z,174.38
2022-09-20T12:22:01.057Z,180.00
2022-09-20T12:23:01.069Z,185.62
2022-09-20T12:24:01.098Z,180.00
2022-09-20T12:25:01.058Z,180.00
2022-09-20T12:26:01.029Z,174.38
2022-09-20T12:27:01.010Z,168.75
2022-09-20T12:28:01.019Z,157.50
2022-09-20T12:29:01.033Z,146.25
2022-09-20T12:30:00.988Z,129.38
2022-09-20T12:31:00.968Z,135.00
2022-09-20T12:32:01.029Z,135.00
2022-09-20T12:33:00.982Z,118.12
2022-09-20T12:34:00.915Z,106.88
2022-09-20T12:35:00.954Z,106.88
2022-09-20T12:36:00.937Z,101.25
2022-09-20T12:37:00.913Z,106.88
2022-09-20T12:38:00.891Z,118.12
2022-09-20T12:39:00.927Z,106.88
2022-09-20T12:40:00.932Z,84.38
2022-09-20T12:41:00.872Z,73.12
2022-09-20T12:42:00.881Z,67.50
2022-09-20T12:43:03.873Z,67.50
2022-09-20T12:44:00.905Z,73.12
2022-09-20T12:45:00.842Z,84.38
2022-09-20T12:46:05.462Z,73.12
2022-09-20T12:47:01.798Z,73.12
2022-09-20T12:48:00.793Z,73.12
2022-09-20T12:49:00.772Z,73.12
2022-09-20T12:50:00.803Z,61.88
2022-09-20T12:51:01.844Z,56.25
2022-09-20T12:52:00.741Z,61.88
2022-09-20T12:53:00.800Z,56.25
2022-09-20T12:54:00.722Z,56.25
2022-09-20T12:55:04.639Z,61.88
2022-09-20T12:56:01.711Z,61.88
2022-09-20T12:57:00.694Z,61.88
2022-09-20T12:58:00.881Z,73.12
2022-09-20T12:59:00.675Z,73.12